Time;durP1;ratioP1;P1;durP2;ratioP2;P2;SDS_P1;SDS_P2;PMS_P1;PMS_P2;Temp;Humidity;BMP_temperature;BMP_pressure;BME280_temperature;BME280_humidity;BME280_pressure;Samples;Min_cycle;Max_cycle;Signal;HPM_P1;HPM_P2
2021/08/30 00:02:10;;;;;;;3.88;3.20;;;15.40;99.10;;;;;;5015539;28;20018;-75
2021/08/30 00:04:37;;;;;;;5.63;3.50;;;15.60;99.60;;;;;;5015138;28;20058;-76
2021/08/30 00:07:04;;;;;;;3.67;3.20;;;15.70;99.40;;;;;;5015320;28;20026;-76
2021/08/30 00:09:32;;;;;;;5.47;3.08;;;15.90;98.60;;;;;;5015676;28;20021;-76
2021/08/30 00:11:59;;;;;;;3.60;3.30;;;15.80;99.00;;;;;;5015368;28;20018;-76
2021/08/30 00:14:26;;;;;;;4.72;2.83;;;15.80;97.90;;;;;;5015285;28;20033;-76
2021/08/30 00:16:54;;;;;;;2.90;2.60;;;15.80;98.40;;;;;;5013942;28;20061;-76
2021/08/30 00:19:21;;;;;;;4.32;2.80;;;15.80;97.30;;;;;;5014057;28;20486;-76
2021/08/30 00:21:48;;;;;;;3.17;2.88;;;15.80;97.60;;;;;;5015460;28;20014;-76
2021/08/30 00:24:21;;;;;;;2.65;2.40;;;16.10;97.50;;;;;;5013792;28;20022;-76
2021/08/30 00:26:49;;;;;;;2.88;2.30;;;16.30;97.60;;;;;;5015091;28;20017;-75
2021/08/30 00:29:17;;;;;;;2.65;2.45;;;16.50;97.40;;;;;;5014938;28;20482;-74
2021/08/30 00:31:45;;;;;;;4.00;2.90;;;16.70;96.30;;;;;;5013643;28;20500;-75
2021/08/30 00:34:12;;;;;;;3.55;2.70;;;16.90;95.80;;;;;;5015044;28;20053;-76
2021/08/30 00:36:40;;;;;;;4.88;2.60;;;16.90;95.90;;;;;;5013638;28;20100;-76
2021/08/30 00:39:07;;;;;;;2.55;2.42;;;17.00;95.90;;;;;;5014826;28;20022;-75
2021/08/30 00:41:34;;;;;;;3.15;2.95;;;17.10;93.90;;;;;;5014556;28;20493;-75
2021/08/30 00:44:02;;;;;;;3.22;2.92;;;17.00;95.10;;;;;;5014734;28;20018;-76
2021/08/30 00:46:29;;;;;;;4.05;2.90;;;16.90;95.20;;;;;;5014684;28;20018;-76
2021/08/30 00:48:56;;;;;;;2.70;2.50;;;17.10;95.70;;;;;;5014585;28;20359;-76
2021/08/30 00:51:23;;;;;;;2.85;2.65;;;17.20;94.30;;;;;;5013363;28;20026;-76
2021/08/30 00:53:51;;;;;;;2.70;2.50;;;17.30;93.70;;;;;;5013338;28;20500;-76
2021/08/30 00:56:19;;;;;;;2.72;2.53;;;17.40;93.20;;;;;;5013258;28;20033;-75
2021/08/30 00:58:47;;;;;;;2.53;2.33;;;17.60;93.50;;;;;;5014481;28;20026;-75
2021/08/30 01:01:14;;;;;;;2.70;2.53;;;17.80;92.10;;;;;;5013002;28;20061;-74
2021/08/30 01:03:42;;;;;;;2.33;2.13;;;17.80;92.30;;;;;;5012971;28;20033;-74
2021/08/30 01:06:35;;;;;;;4.43;2.58;;;17.80;92.30;;;;;;5012839;28;20065;-75
2021/08/30 01:09:14;;;;;;;2.50;2.30;;;17.80;92.10;;;;;;5012946;28;20129;-76
2021/08/30 01:12:08;;;;;;;2.38;2.13;;;18.00;92.40;;;;;;5013031;28;20080;-75
2021/08/30 01:14:56;;;;;;;2.63;2.22;;;17.90;91.30;;;;;;5012907;28;20026;-77
2021/08/30 01:17:25;;;;;;;2.60;2.40;;;17.90;91.20;;;;;;5014073;28;20021;-77
2021/08/30 01:20:01;;;;;;;2.72;2.53;;;17.90;91.00;;;;;;5014020;28;20062;-76
2021/08/30 01:22:30;;;;;;;5.47;2.50;;;18.00;90.80;;;;;;5012895;28;20025;-75
2021/08/30 01:25:00;;;;;;;2.50;2.40;;;18.20;90.60;;;;;;5013943;28;20021;-75
2021/08/30 01:27:31;;;;;;;2.92;2.70;;;18.00;90.80;;;;;;5012701;28;20368;-75
2021/08/30 01:30:03;;;;;;;3.92;2.80;;;18.10;90.60;;;;;;5014024;28;20476;-75
2021/08/30 01:32:31;;;;;;;2.88;2.67;;;18.20;90.90;;;;;;5012501;28;20026;-75
2021/08/30 01:35:02;;;;;;;2.53;2.42;;;18.30;90.50;;;;;;5012476;28;20026;-75
2021/08/30 01:37:31;;;;;;;2.60;2.40;;;18.20;90.70;;;;;;5012522;28;20026;-75
2021/08/30 01:39:59;;;;;;;3.88;2.65;;;18.30;90.90;;;;;;5013780;28;20026;-75
2021/08/30 01:42:29;;;;;;;2.40;2.30;;;18.20;90.60;;;;;;5013798;28;20018;-76
2021/08/30 01:44:58;;;;;;;3.17;2.42;;;18.40;90.40;;;;;;5013820;28;20014;-76
2021/08/30 01:47:26;;;;;;;2.58;2.45;;;18.60;90.70;;;;;;5013623;28;20026;-76
2021/08/30 01:50:02;;;;;;;2.38;2.28;;;18.90;90.70;;;;;;5013606;28;20022;-76
2021/08/30 01:52:34;;;;;;;2.85;2.33;;;19.00;89.40;;;;;;5012879;28;20034;-76
2021/08/30 01:55:49;;;;;;;2.88;2.67;;;18.90;90.00;;;;;;5013317;28;20034;-76
2021/08/30 02:00:48;;;;;;;2.47;2.33;;;18.70;90.30;;;;;;5011846;28;20498;-75
2021/08/30 02:03:23;;;;;;;2.45;2.20;;;18.60;90.50;;;;;;5013234;28;20487;-75
2021/08/30 02:06:09;;;;;;;2.58;2.38;;;18.50;90.10;;;;;;5011536;28;20048;-76
2021/08/30 02:08:36;;;;;;;2.42;2.25;;;18.60;90.40;;;;;;5012019;28;20076;-76
2021/08/30 02:11:13;;;;;;;2.58;2.30;;;18.80;91.10;;;;;;5011936;28;20026;-76
2021/08/30 02:13:41;;;;;;;2.67;2.50;;;18.90;90.20;;;;;;5012089;28;20034;-74
2021/08/30 02:16:08;;;;;;;2.50;2.30;;;18.90;90.60;;;;;;5011883;28;20038;-76
2021/08/30 02:18:46;;;;;;;3.30;2.65;;;18.90;90.40;;;;;;5011748;28;20033;-75
2021/08/30 02:21:20;;;;;;;2.30;2.10;;;18.90;89.70;;;;;;5012943;28;20045;-75
2021/08/30 02:24:31;;;;;;;2.00;1.90;;;19.10;89.30;;;;;;5011902;28;20478;-76
2021/08/30 02:27:03;;;;;;;2.20;2.00;;;19.20;87.60;;;;;;5009791;28;20079;-75
2021/08/30 02:29:40;;;;;;;4.05;2.25;;;19.30;88.50;;;;;;5011853;28;20477;-75
2021/08/30 02:32:08;;;;;;;2.40;2.20;;;19.30;89.10;;;;;;5011817;28;20037;-74
2021/08/30 02:34:39;;;;;;;2.45;2.10;;;19.30;87.00;;;;;;5013082;28;20390;-75
2021/08/30 02:37:10;;;;;;;2.05;1.75;;;19.10;88.20;;;;;;4995696;28;20026;-76
2021/08/30 02:39:39;;;;;;;2.72;2.00;;;19.20;88.20;;;;;;5011688;28;20458;-75
2021/08/30 02:42:08;;;;;;;2.08;1.98;;;19.20;84.80;;;;;;5011662;28;20061;-76
2021/08/30 02:44:35;;;;;;;2.10;1.90;;;19.10;84.80;;;;;;5013002;28;20069;-75
2021/08/30 02:47:04;;;;;;;2.35;1.80;;;19.20;85.60;;;;;;5011559;28;20113;-75
2021/08/30 02:49:31;;;;;;;2.00;1.90;;;19.40;87.80;;;;;;5012897;28;20026;-76
2021/08/30 02:52:04;;;;;;;2.50;2.30;;;19.50;86.90;;;;;;5011610;28;20022;-77
2021/08/30 02:54:36;;;;;;;2.63;2.40;;;19.60;85.00;;;;;;5011916;28;20378;-76
2021/08/30 02:57:05;;;;;;;2.40;2.20;;;19.70;87.30;;;;;;5011501;28;20068;-76
2021/08/30 02:59:34;;;;;;;2.03;1.92;;;19.90;89.00;;;;;;5011501;28;20026;-78
2021/08/30 03:02:06;;;;;;;2.63;2.22;;;20.10;86.50;;;;;;5011463;28;20452;-75
2021/08/30 03:04:35;;;;;;;2.83;2.55;;;19.90;87.00;;;;;;5013598;28;20064;-74
2021/08/30 03:07:05;;;;;;;2.28;2.08;;;19.90;84.80;;;;;;5015413;28;20025;-76
2021/08/30 03:09:33;;;;;;;2.55;2.20;;;19.70;85.00;;;;;;5015231;28;20540;-77
2021/08/30 03:12:02;;;;;;;2.53;2.33;;;19.70;88.20;;;;;;4998909;28;20564;-77
2021/08/30 03:14:30;;;;;;;3.13;2.50;;;20.00;88.10;;;;;;5015309;28;20057;-75
2021/08/30 03:17:02;;;;;;;2.60;2.40;;;20.10;85.50;;;;;;5015264;28;20018;-77
2021/08/30 03:19:31;;;;;;;3.97;2.42;;;20.20;86.00;;;;;;5015061;28;20208;-76
2021/08/30 03:22:01;;;;;;;3.20;2.30;;;20.30;86.10;;;;;;5015102;28;20030;-77
2021/08/30 03:24:31;;;;;;;2.67;2.47;;;20.40;83.70;;;;;;5016664;28;20050;-77
2021/08/30 03:26:59;;;;;;;2.72;2.20;;;20.30;84.20;;;;;;5016237;28;20032;-78
2021/08/30 03:29:28;;;;;;;2.33;2.17;;;20.50;83.90;;;;;;5016086;28;20022;-77
2021/08/30 03:31:56;;;;;;;2.95;2.40;;;20.50;87.50;;;;;;5014790;28;20482;-78
2021/08/30 03:34:24;;;;;;;3.05;2.65;;;20.50;88.10;;;;;;5016095;28;20029;-78
2021/08/30 03:36:56;;;;;;;2.40;2.20;;;20.60;89.70;;;;;;4998672;28;20067;-78
2021/08/30 03:39:24;;;;;;;2.50;2.30;;;20.60;88.20;;;;;;5014856;28;20026;-75
2021/08/30 03:41:51;;;;;;;2.65;2.45;;;20.70;88.00;;;;;;5015833;28;20397;-75
2021/08/30 03:44:20;;;;;;;3.72;2.47;;;20.70;89.00;;;;;;5015921;28;20059;-76
2021/08/30 03:46:48;;;;;;;3.08;2.40;;;20.70;87.60;;;;;;5015771;28;20025;-77
2021/08/30 03:49:24;;;;;;;3.42;2.90;;;20.50;88.50;;;;;;5014440;28;20113;-76
2021/08/30 03:51:53;;;;;;;2.72;2.50;;;20.40;90.00;;;;;;5014416;28;20435;-76
2021/08/30 03:54:22;;;;;;;2.65;2.45;;;20.30;90.10;;;;;;5015606;28;20017;-75
2021/08/30 03:56:50;;;;;;;2.30;2.10;;;20.40;90.30;;;;;;4998039;28;20033;-77
2021/08/30 03:59:19;;;;;;;3.80;2.25;;;20.10;90.10;;;;;;5015556;28;20026;-76
2021/08/30 04:01:53;;;;;;;2.40;2.30;;;20.30;90.20;;;;;;5014253;28;20036;-76
2021/08/30 04:04:23;;;;;;;3.67;2.42;;;20.20;89.70;;;;;;5014460;28;20587;-75
2021/08/30 04:06:50;;;;;;;3.00;2.70;;;20.30;89.80;;;;;;5014605;28;20034;-76
2021/08/30 04:09:20;;;;;;;3.05;2.85;;;20.00;88.90;;;;;;5015440;28;20037;-76
2021/08/30 04:11:50;;;;;;;3.35;3.15;;;20.00;90.30;;;;;;5015507;28;20076;-76
2021/08/30 04:14:19;;;;;;;3.40;3.10;;;20.00;90.00;;;;;;5014289;28;20041;-75
2021/08/30 04:16:47;;;;;;;3.13;2.92;;;20.00;90.70;;;;;;5014713;28;20029;-77
2021/08/30 04:19:16;;;;;;;3.20;3.00;;;19.80;89.70;;;;;;5014189;28;20402;-76
2021/08/30 04:21:44;;;;;;;3.38;3.17;;;19.70;90.20;;;;;;5013904;28;20605;-76
2021/08/30 04:24:11;;;;;;;4.38;2.90;;;19.90;90.40;;;;;;5014001;28;20026;-75
2021/08/30 04:26:39;;;;;;;2.80;2.60;;;19.80;90.40;;;;;;5013785;28;20053;-76
2021/08/30 04:29:07;;;;;;;3.55;2.70;;;19.80;90.40;;;;;;5015020;28;20025;-77
2021/08/30 04:31:35;;;;;;;2.78;2.67;;;19.60;90.40;;;;;;5013720;28;20083;-76
2021/08/30 04:34:04;;;;;;;2.72;2.50;;;19.30;91.00;;;;;;5013488;28;20034;-76
2021/08/30 04:36:31;;;;;;;3.38;2.67;;;19.40;91.20;;;;;;5013605;28;20524;-76
2021/08/30 04:38:59;;;;;;;4.60;2.55;;;19.40;91.30;;;;;;5014887;28;20018;-76
2021/08/30 04:41:26;;;;;;;2.40;2.20;;;19.60;91.10;;;;;;5013394;28;20394;-75
2021/08/30 04:43:53;;;;;;;2.28;2.10;;;19.70;91.20;;;;;;5013582;28;20481;-76
2021/08/30 04:46:21;;;;;;;2.38;2.17;;;19.50;91.20;;;;;;5013475;28;20026;-75
2021/08/30 04:48:48;;;;;;;3.00;2.70;;;19.30;91.60;;;;;;5014572;28;20109;-75
2021/08/30 04:51:16;;;;;;;3.00;2.75;;;19.40;91.10;;;;;;5013179;28;20111;-75
2021/08/30 04:53:43;;;;;;;2.72;2.60;;;19.40;91.40;;;;;;5014607;28;20021;-76
2021/08/30 04:56:10;;;;;;;2.75;2.42;;;19.20;90.90;;;;;;5013106;28;20390;-75
2021/08/30 04:58:41;;;;;;;3.25;2.50;;;19.10;90.70;;;;;;5014460;28;20026;-76
2021/08/30 05:01:08;;;;;;;2.55;2.40;;;18.80;90.80;;;;;;5013036;28;20053;-75
2021/08/30 05:03:35;;;;;;;2.72;2.63;;;18.70;90.80;;;;;;5014439;28;20053;-74
2021/08/30 05:06:03;;;;;;;2.35;2.25;;;18.80;91.50;;;;;;5014070;28;20042;-75
2021/08/30 05:08:30;;;;;;;2.63;2.40;;;18.80;90.90;;;;;;5012962;28;20116;-74
2021/08/30 05:10:58;;;;;;;2.70;2.50;;;18.80;91.40;;;;;;5014207;28;20099;-76
2021/08/30 05:13:27;;;;;;;2.75;2.65;;;18.80;91.60;;;;;;5013060;28;20053;-75
2021/08/30 05:15:54;;;;;;;2.60;2.50;;;18.80;91.00;;;;;;5014201;28;20026;-76
2021/08/30 05:18:22;;;;;;;3.10;2.80;;;18.70;90.90;;;;;;5012795;28;20025;-76
2021/08/30 05:20:50;;;;;;;2.70;2.60;;;18.60;90.90;;;;;;5012738;28;20069;-75
2021/08/30 05:23:20;;;;;;;3.70;2.50;;;18.40;91.40;;;;;;5012651;28;20052;-75
2021/08/30 05:25:50;;;;;;;2.50;2.40;;;18.20;91.30;;;;;;5014028;28;20014;-75
2021/08/30 05:28:18;;;;;;;2.63;2.47;;;18.20;91.80;;;;;;5011901;28;20030;-74
2021/08/30 05:30:45;;;;;;;2.75;2.50;;;18.00;91.70;;;;;;5012638;28;20486;-76
2021/08/30 05:33:12;;;;;;;4.07;2.70;;;17.90;91.90;;;;;;5012642;28;20080;-75
2021/08/30 05:35:39;;;;;;;2.85;2.60;;;18.10;92.40;;;;;;5013787;28;20030;-74
2021/08/30 05:38:07;;;;;;;2.78;2.60;;;18.00;91.90;;;;;;5013994;28;20028;-77
2021/08/30 05:40:34;;;;;;;3.63;2.50;;;18.10;91.90;;;;;;5013749;28;20026;-75
2021/08/30 05:43:02;;;;;;;3.10;2.90;;;18.00;91.90;;;;;;5012402;28;20109;-76
2021/08/30 05:45:32;;;;;;;2.80;2.60;;;18.00;91.90;;;;;;5013530;28;20418;-74
2021/08/30 05:48:00;;;;;;;2.65;2.50;;;18.00;92.00;;;;;;5013943;28;20538;-75
2021/08/30 05:50:27;;;;;;;3.38;2.65;;;17.90;92.10;;;;;;5013602;28;20037;-75
2021/08/30 05:52:54;;;;;;;2.78;2.60;;;17.90;92.00;;;;;;5012286;28;20026;-74
2021/08/30 05:55:22;;;;;;;3.00;2.80;;;17.70;92.30;;;;;;5012312;28;20501;-75
2021/08/30 05:57:50;;;;;;;4.05;3.03;;;17.70;92.30;;;;;;5013466;28;20033;-75
2021/08/30 06:00:17;;;;;;;3.03;2.83;;;17.50;92.50;;;;;;5013490;28;20108;-75
2021/08/30 06:02:45;;;;;;;3.05;2.85;;;17.40;92.60;;;;;;5012115;28;20026;-75
2021/08/30 06:05:12;;;;;;;3.08;2.78;;;17.30;93.00;;;;;;5011981;28;20049;-76
2021/08/30 06:07:41;;;;;;;3.08;2.80;;;17.30;93.30;;;;;;5012057;28;20479;-75
2021/08/30 06:10:10;;;;;;;2.90;2.70;;;17.20;93.10;;;;;;5012268;28;20041;-74
2021/08/30 06:12:39;;;;;;;2.80;2.60;;;17.10;93.20;;;;;;4995735;28;20038;-75
2021/08/30 06:15:07;;;;;;;3.05;2.85;;;17.00;93.40;;;;;;5013113;28;20398;-75
2021/08/30 06:17:34;;;;;;;2.95;2.60;;;16.90;93.80;;;;;;5011914;28;20120;-75
2021/08/30 06:20:02;;;;;;;2.30;2.20;;;16.90;94.10;;;;;;5013243;28;20096;-76
2021/08/30 06:22:31;;;;;;;2.65;2.45;;;16.90;94.10;;;;;;5013187;28;20022;-74
2021/08/30 06:24:58;;;;;;;2.47;2.38;;;16.80;94.10;;;;;;5011818;28;20026;-75
2021/08/30 06:27:25;;;;;;;3.53;2.75;;;16.90;94.30;;;;;;5013072;28;20026;-74
2021/08/30 06:29:53;;;;;;;2.80;2.50;;;16.70;94.10;;;;;;5013088;28;20026;-76
2021/08/30 06:32:20;;;;;;;2.67;2.58;;;16.70;94.30;;;;;;5011853;28;20022;-75
2021/08/30 06:34:48;;;;;;;3.15;2.80;;;16.60;94.60;;;;;;5011843;28;20117;-75
2021/08/30 06:37:15;;;;;;;3.13;2.92;;;16.60;94.80;;;;;;5011896;28;20093;-74
2021/08/30 06:39:42;;;;;;;2.88;2.78;;;16.60;94.90;;;;;;5014750;28;20454;-76
2021/08/30 06:42:11;;;;;;;3.50;2.80;;;16.50;95.10;;;;;;5015731;28;20034;-75
2021/08/30 06:44:38;;;;;;;3.33;2.95;;;16.50;95.10;;;;;;5016980;28;20029;-76
2021/08/30 06:47:06;;;;;;;2.97;2.75;;;16.40;95.20;;;;;;5015970;28;20034;-74
2021/08/30 06:49:33;;;;;;;4.28;2.58;;;16.30;95.50;;;;;;5015584;28;20025;-75
2021/08/30 06:52:01;;;;;;;3.08;2.85;;;16.30;95.30;;;;;;5015414;28;20390;-75
2021/08/30 06:54:28;;;;;;;3.03;2.50;;;16.20;95.30;;;;;;5015528;28;20022;-76
2021/08/30 06:56:56;;;;;;;3.05;2.50;;;16.10;95.10;;;;;;5016646;28;20022;-76
2021/08/30 06:59:23;;;;;;;3.08;2.78;;;16.10;95.30;;;;;;5016821;28;20025;-76
2021/08/30 07:01:50;;;;;;;3.10;2.90;;;16.10;95.40;;;;;;5015051;28;20049;-76
2021/08/30 07:04:17;;;;;;;2.60;2.50;;;16.10;95.80;;;;;;5014912;28;20021;-75
2021/08/30 07:06:45;;;;;;;2.80;2.60;;;15.90;95.80;;;;;;5014998;28;20034;-76
2021/08/30 07:09:12;;;;;;;2.63;2.42;;;15.80;96.20;;;;;;5016262;28;20029;-76
2021/08/30 07:11:39;;;;;;;2.90;2.47;;;15.80;96.60;;;;;;5015048;28;20084;-74
2021/08/30 07:14:07;;;;;;;2.47;2.33;;;15.70;96.50;;;;;;5015482;28;20494;-75
2021/08/30 07:16:34;;;;;;;2.75;2.40;;;15.60;96.70;;;;;;5016554;28;20022;-76
2021/08/30 07:19:01;;;;;;;3.67;2.50;;;15.50;97.10;;;;;;5016344;28;20037;-76
2021/08/30 07:21:29;;;;;;;2.50;2.35;;;15.40;97.40;;;;;;5014847;28;20113;-76
2021/08/30 07:23:58;;;;;;;3.53;2.20;;;15.30;97.60;;;;;;5016287;28;20386;-76
2021/08/30 07:26:25;;;;;;;2.30;2.10;;;15.20;97.80;;;;;;5014813;28;20419;-78
2021/08/30 07:28:53;;;;;;;1.70;1.60;;;15.20;98.10;;;;;;5015090;28;20029;-75
2021/08/30 07:31:20;;;;;;;2.83;2.40;;;15.10;98.10;;;;;;5016143;28;20037;-76
2021/08/30 07:33:48;;;;;;;2.55;2.08;;;15.00;98.50;;;;;;5014691;28;20036;-75
2021/08/30 07:36:16;;;;;;;2.30;2.20;;;14.90;98.40;;;;;;5015368;28;20030;-74
2021/08/30 07:38:44;;;;;;;3.03;2.40;;;14.90;98.70;;;;;;5014544;28;20034;-74
2021/08/30 07:41:11;;;;;;;2.40;2.20;;;14.80;98.90;;;;;;5014654;28;20034;-72
2021/08/30 07:43:38;;;;;;;2.20;2.10;;;14.80;99.50;;;;;;5014595;28;20084;-73
2021/08/30 07:46:06;;;;;;;2.42;2.30;;;14.70;99.70;;;;;;5015796;28;20022;-72
2021/08/30 07:48:33;;;;;;;5.38;2.67;;;14.60;99.90;;;;;;5014400;28;20024;-73
2021/08/30 07:51:01;;;;;;;3.83;2.70;;;14.50;99.90;;;;;;5013521;28;20026;-74
2021/08/30 07:53:29;;;;;;;3.28;2.90;;;14.40;99.90;;;;;;5015117;28;20474;-75
2021/08/30 07:55:57;;;;;;;3.42;2.70;;;14.40;99.90;;;;;;5014397;28;20034;-73
2021/08/30 07:58:25;;;;;;;5.38;3.03;;;14.40;99.90;;;;;;5014314;28;20030;-72
2021/08/30 08:00:52;;;;;;;3.10;2.80;;;14.30;99.90;;;;;;5014348;28;20030;-73
2021/08/30 08:03:20;;;;;;;3.70;3.35;;;14.20;99.90;;;;;;5014560;28;20030;-72
2021/08/30 08:05:47;;;;;;;4.13;3.10;;;14.20;99.90;;;;;;5013821;28;20053;-73
2021/08/30 08:08:14;;;;;;;5.43;3.55;;;14.20;99.90;;;;;;5015520;28;20386;-73
2021/08/30 08:10:43;;;;;;;3.83;3.42;;;14.10;99.90;;;;;;5014037;28;20030;-73
2021/08/30 08:13:11;;;;;;;4.03;3.72;;;14.10;99.90;;;;;;5015195;28;20485;-74
2021/08/30 08:15:40;;;;;;;3.53;3.20;;;14.00;99.90;;;;;;5014310;28;20038;-73
2021/08/30 08:18:08;;;;;;;3.30;3.00;;;14.00;99.90;;;;;;5013921;28;20037;-73
2021/08/30 08:20:35;;;;;;;5.30;3.25;;;13.90;99.90;;;;;;5013837;28;20471;-74
2021/08/30 08:23:04;;;;;;;3.50;2.70;;;13.90;99.90;;;;;;5013873;28;20022;-75
2021/08/30 08:25:32;;;;;;;3.88;3.20;;;13.80;99.90;;;;;;5015112;28;20028;-73
2021/08/30 08:28:04;;;;;;;6.60;4.55;;;13.80;99.90;;;;;;5013793;28;20076;-73
2021/08/30 08:30:33;;;;;;;3.22;2.88;;;13.80;99.90;;;;;;5015066;28;20109;-73
2021/08/30 08:33:01;;;;;;;3.25;2.90;;;13.70;99.90;;;;;;5015027;28;20032;-74
2021/08/30 08:35:29;;;;;;;5.05;3.80;;;13.80;99.90;;;;;;5013884;28;20060;-75
2021/08/30 08:37:56;;;;;;;4.57;3.33;;;13.70;99.90;;;;;;5014938;28;20036;-74
2021/08/30 08:40:24;;;;;;;3.92;3.53;;;13.70;99.90;;;;;;5013591;28;20117;-77
2021/08/30 08:42:51;;;;;;;6.95;4.13;;;13.60;99.90;;;;;;5014705;28;20029;-75
2021/08/30 08:45:20;;;;;;;6.90;3.80;;;13.60;99.90;;;;;;5013676;28;20060;-75
2021/08/30 08:47:47;;;;;;;3.72;3.42;;;13.60;99.90;;;;;;5013774;28;20113;-74
2021/08/30 08:50:22;;;;;;;3.78;3.45;;;13.60;99.90;;;;;;5013613;28;20033;-73
2021/08/30 08:52:50;;;;;;;5.82;3.75;;;13.50;99.90;;;;;;5013541;28;20030;-75
2021/08/30 08:55:17;;;;;;;3.88;3.20;;;13.50;99.90;;;;;;5013374;28;20041;-74
2021/08/30 08:57:45;;;;;;;4.10;3.70;;;13.50;99.90;;;;;;5014404;28;20026;-73
2021/08/30 09:00:14;;;;;;;5.22;4.20;;;13.50;99.90;;;;;;5014456;28;20136;-72
2021/08/30 09:02:42;;;;;;;6.85;4.32;;;13.40;99.90;;;;;;5012981;28;20029;-74
2021/08/30 09:05:24;;;;;;;4.70;3.90;;;13.40;99.90;;;;;;5013986;28;20132;-74
2021/08/30 09:07:57;;;;;;;4.70;3.90;;;13.40;99.90;;;;;;5014490;28;20498;-72
2021/08/30 09:10:26;;;;;;;5.85;3.92;;;13.40;99.90;;;;;;5014230;28;20022;-72
2021/08/30 09:13:07;;;;;;;8.63;4.40;;;13.50;99.90;;;;;;5013150;28;20061;-73
2021/08/30 09:15:41;;;;;;;4.82;4.35;;;13.40;99.90;;;;;;5014432;28;20048;-74
2021/08/30 09:18:10;;;;;;;5.00;4.60;;;13.30;99.90;;;;;;5013022;28;20033;-73
2021/08/30 09:20:38;;;;;;;5.50;4.30;;;13.30;99.90;;;;;;5013980;28;20026;-73
2021/08/30 09:23:15;;;;;;;5.03;4.32;;;13.30;99.90;;;;;;5012691;28;20113;-73
2021/08/30 09:25:44;;;;;;;5.15;4.38;;;13.20;99.90;;;;;;5014005;28;20022;-73
2021/08/30 09:28:12;;;;;;;5.53;4.97;;;13.20;99.90;;;;;;5012615;28;20030;-73
2021/08/30 09:30:39;;;;;;;4.90;4.50;;;13.20;99.90;;;;;;5012454;28;20117;-73
2021/08/30 09:33:07;;;;;;;5.43;4.07;;;13.10;99.90;;;;;;5013865;28;20030;-73
2021/08/30 09:35:34;;;;;;;6.75;4.50;;;13.10;99.90;;;;;;5013860;28;20049;-73
2021/08/30 09:38:02;;;;;;;7.25;4.55;;;13.10;99.90;;;;;;5012542;28;20335;-73
2021/08/30 09:40:29;;;;;;;5.25;4.25;;;13.10;99.90;;;;;;5013738;28;20034;-74
2021/08/30 09:42:57;;;;;;;5.20;4.28;;;13.00;99.90;;;;;;5013769;28;20064;-74
2021/08/30 09:45:28;;;;;;;6.13;4.65;;;13.00;99.90;;;;;;5013759;28;20045;-72
2021/08/30 09:47:59;;;;;;;5.57;4.55;;;13.00;99.90;;;;;;5012299;28;20033;-74
2021/08/30 09:50:30;;;;;;;4.75;4.05;;;13.00;99.90;;;;;;5012647;28;20080;-74
2021/08/30 09:52:59;;;;;;;7.68;4.65;;;13.00;99.90;;;;;;5013501;28;20022;-73
2021/08/30 09:55:28;;;;;;;5.25;4.10;;;13.00;99.90;;;;;;5012326;28;20466;-73
2021/08/30 09:57:56;;;;;;;5.25;4.75;;;13.00;99.90;;;;;;5013435;28;20030;-73
2021/08/30 10:00:24;;;;;;;6.05;4.85;;;13.00;99.90;;;;;;5012037;28;20037;-74
2021/08/30 10:02:54;;;;;;;7.10;4.15;;;13.00;99.90;;;;;;5013332;28;20022;-73
2021/08/30 10:05:24;;;;;;;4.68;4.20;;;12.90;99.90;;;;;;5013115;28;20053;-73
2021/08/30 10:07:55;;;;;;;4.88;4.20;;;13.00;99.90;;;;;;5012302;28;20021;-73
2021/08/30 10:10:24;;;;;;;5.00;4.60;;;12.90;99.90;;;;;;5011820;28;20088;-74
2021/08/30 10:12:56;;;;;;;4.10;3.70;;;12.90;99.90;;;;;;5012991;28;20030;-74
2021/08/30 10:15:28;;;;;;;5.88;4.32;;;12.90;99.90;;;;;;5013228;28;20022;-74
2021/08/30 10:17:57;;;;;;;4.55;4.15;;;12.90;99.90;;;;;;5011968;28;20482;-74
2021/08/30 10:20:29;;;;;;;5.40;4.90;;;12.90;99.90;;;;;;5011826;28;20033;-74
2021/08/30 10:23:04;;;;;;;5.22;4.72;;;12.80;99.90;;;;;;5011857;28;20026;-74
2021/08/30 10:25:33;;;;;;;6.72;4.82;;;12.90;99.90;;;;;;5012231;28;20060;-74
2021/08/30 10:28:07;;;;;;;5.03;4.18;;;12.80;99.90;;;;;;5012182;28;20034;-74
2021/08/30 10:30:37;;;;;;;6.03;4.78;;;12.80;99.90;;;;;;4995903;28;20034;-73
2021/08/30 10:33:08;;;;;;;5.85;5.25;;;12.80;99.90;;;;;;5012888;28;20367;-74
2021/08/30 10:35:39;;;;;;;5.13;4.63;;;12.80;99.90;;;;;;5013036;28;20049;-74
2021/08/30 10:38:15;;;;;;;6.88;4.82;;;12.60;99.90;;;;;;5011560;28;20483;-73
2021/08/30 10:40:48;;;;;;;5.20;4.80;;;12.60;99.90;;;;;;5012767;28;20053;-73
2021/08/30 10:43:21;;;;;;;7.82;4.97;;;12.60;99.90;;;;;;5012896;28;20184;-74
2021/08/30 10:45:59;;;;;;;5.55;5.00;;;12.60;99.90;;;;;;5011494;28;20025;-72
2021/08/30 10:48:38;;;;;;;6.22;4.68;;;12.60;99.90;;;;;;5012919;28;20026;-72
2021/08/30 10:51:21;;;;;;;6.88;4.70;;;12.60;99.90;;;;;;4995423;28;20037;-74
2021/08/30 10:54:05;;;;;;;4.82;4.30;;;12.50;99.90;;;;;;5011429;28;20030;-74
2021/08/30 10:56:34;;;;;;;4.78;4.38;;;12.50;99.90;;;;;;5012816;28;20433;-74
2021/08/30 10:59:09;;;;;;;4.45;4.13;;;12.60;99.90;;;;;;5011316;28;20057;-73
2021/08/30 11:01:39;;;;;;;4.30;4.00;;;12.50;99.90;;;;;;5011379;28;20030;-73
2021/08/30 11:04:08;;;;;;;4.45;4.05;;;12.60;99.90;;;;;;5011124;28;20034;-72
2021/08/30 11:06:38;;;;;;;5.28;3.78;;;12.60;99.90;;;;;;5011152;28;20034;-73
2021/08/30 11:09:06;;;;;;;4.13;3.73;;;12.60;99.90;;;;;;5010980;28;20022;-72
2021/08/30 11:11:33;;;;;;;4.40;3.67;;;12.60;99.90;;;;;;5012496;28;20030;-73
2021/08/30 11:14:09;;;;;;;4.43;4.03;;;12.60;99.90;;;;;;5012585;28;20156;-73
2021/08/30 11:16:40;;;;;;;3.90;3.60;;;12.60;99.90;;;;;;5012439;28;20037;-74
2021/08/30 11:19:13;;;;;;;4.63;3.40;;;12.60;99.90;;;;;;5011233;28;20452;-73
2021/08/30 11:21:57;;;;;;;3.80;3.15;;;12.60;99.90;;;;;;5012389;28;20026;-74
2021/08/30 11:24:29;;;;;;;6.65;3.90;;;12.70;99.90;;;;;;5012474;28;20093;-73
2021/08/30 11:27:04;;;;;;;4.05;3.65;;;12.70;99.90;;;;;;5014222;28;20018;-73
2021/08/30 11:29:34;;;;;;;4.10;3.63;;;12.70;99.90;;;;;;5014770;28;20022;-74
2021/08/30 11:32:02;;;;;;;4.13;3.83;;;12.60;99.90;;;;;;5016079;28;20542;-73
2021/08/30 11:34:32;;;;;;;3.90;3.55;;;12.70;99.90;;;;;;5014759;28;20411;-74
2021/08/30 11:37:02;;;;;;;4.70;3.30;;;12.70;99.90;;;;;;5014849;28;20554;-74
2021/08/30 11:39:32;;;;;;;3.20;3.00;;;12.70;99.90;;;;;;5014841;28;20029;-73
2021/08/30 11:42:03;;;;;;;3.85;3.50;;;12.70;99.90;;;;;;5015976;28;20512;-73
2021/08/30 11:44:32;;;;;;;3.33;3.03;;;12.70;99.90;;;;;;5016204;28;20022;-74
2021/08/30 11:47:02;;;;;;;4.43;3.80;;;12.80;99.90;;;;;;5015847;28;20026;-74
2021/08/30 11:49:32;;;;;;;5.25;3.42;;;12.80;99.90;;;;;;5014577;28;20022;-73
2021/08/30 11:52:03;;;;;;;5.10;4.38;;;12.80;99.90;;;;;;5015664;28;20032;-73
2021/08/30 11:54:34;;;;;;;4.20;3.90;;;12.80;99.90;;;;;;5015667;28;20026;-74
2021/08/30 11:57:12;;;;;;;5.88;4.45;;;12.80;99.90;;;;;;5015680;28;20018;-74
2021/08/30 11:59:53;;;;;;;3.80;3.50;;;12.80;99.90;;;;;;5014201;28;20025;-73
2021/08/30 12:02:21;;;;;;;4.00;3.63;;;12.80;99.90;;;;;;5014345;28;20021;-75
2021/08/30 12:04:49;;;;;;;3.95;3.58;;;12.80;99.90;;;;;;5013849;28;20086;-74
2021/08/30 12:07:17;;;;;;;4.45;3.40;;;12.80;99.90;;;;;;5015312;28;20014;-74
2021/08/30 12:09:49;;;;;;;4.32;3.50;;;12.70;99.90;;;;;;5014065;28;20137;-73
2021/08/30 12:12:37;;;;;;;7.85;3.88;;;12.80;99.90;;;;;;5014065;28;20022;-74
2021/08/30 12:15:14;;;;;;;8.82;4.40;;;12.80;99.90;;;;;;5015292;28;20022;-75
2021/08/30 12:17:55;;;;;;;5.47;4.20;;;12.70;99.90;;;;;;5013938;28;20486;-75
2021/08/30 12:20:31;;;;;;;5.00;4.03;;;12.70;99.90;;;;;;5013812;28;20100;-75
2021/08/30 12:23:02;;;;;;;4.10;3.80;;;12.70;99.90;;;;;;5014306;28;20471;-75
2021/08/30 12:25:38;;;;;;;6.03;4.20;;;12.70;99.90;;;;;;5013799;28;20239;-75
2021/08/30 12:28:07;;;;;;;4.63;4.00;;;12.70;99.90;;;;;;5015154;28;20390;-75
2021/08/30 12:30:45;;;;;;;4.47;4.13;;;12.70;99.90;;;;;;5013789;28;20456;-75
2021/08/30 12:33:19;;;;;;;4.47;4.07;;;12.60;99.90;;;;;;4997918;28;20084;-75
2021/08/30 12:35:51;;;;;;;4.43;3.97;;;12.50;99.90;;;;;;5013485;28;20157;-75
2021/08/30 12:38:27;;;;;;;4.95;4.55;;;12.50;99.90;;;;;;5013407;28;20030;-73
2021/08/30 12:40:57;;;;;;;5.10;4.72;;;12.40;99.90;;;;;;5013486;28;20029;-74
2021/08/30 12:43:26;;;;;;;4.75;4.25;;;12.40;99.90;;;;;;5014022;28;20028;-74
2021/08/30 12:45:55;;;;;;;4.50;4.20;;;12.40;99.90;;;;;;5013460;28;20026;-75
2021/08/30 12:48:25;;;;;;;4.80;4.25;;;12.30;99.90;;;;;;5014624;28;20065;-74
2021/08/30 12:50:52;;;;;;;4.75;4.40;;;12.30;99.90;;;;;;5014638;28;20064;-74
2021/08/30 12:53:20;;;;;;;4.50;4.20;;;12.30;99.90;;;;;;5014557;28;20367;-74
2021/08/30 12:55:47;;;;;;;4.72;4.32;;;12.20;99.90;;;;;;5014421;28;20156;-74
2021/08/30 12:58:15;;;;;;;4.80;4.50;;;12.20;99.90;;;;;;5013401;28;20037;-74
2021/08/30 13:00:43;;;;;;;5.07;4.68;;;12.20;99.90;;;;;;5013120;28;20459;-75
2021/08/30 13:03:11;;;;;;;4.30;4.10;;;12.10;99.90;;;;;;5013406;28;20532;-73
2021/08/30 13:05:44;;;;;;;6.65;4.80;;;12.10;99.90;;;;;;5012787;28;20087;-73